sensor_id;sensor_type;location;lat;lon;timestamp;pressure;altitude;pressure_sealevel;temperature;humidity
7480;BME280;3781;42.272;22.658;2023-12-20T00:02:16;94855.00;;;6.02;52.66
7480;BME280;3781;42.272;22.658;2023-12-20T00:04:43;94858.16;;;5.54;53.21
7480;BME280;3781;42.272;22.658;2023-12-20T00:07:09;94849.00;;;5.89;52.63
7480;BME280;3781;42.272;22.658;2023-12-20T00:09:36;94853.13;;;5.92;52.58
7480;BME280;3781;42.272;22.658;2023-12-20T00:12:03;94846.22;;;5.66;52.87
7480;BME280;3781;42.272;22.658;2023-12-20T00:14:30;94854.53;;;5.17;54.39
7480;BME280;3781;42.272;22.658;2023-12-20T00:16:57;94840.41;;;5.37;53.58
7480;BME280;3781;42.272;22.658;2023-12-20T00:19:25;94851.09;;;6.09;52.71
7480;BME280;3781;42.272;22.658;2023-12-20T00:21:51;94848.19;;;5.89;52.49
7480;BME280;3781;42.272;22.658;2023-12-20T00:24:18;94841.63;;;5.97;52.31
7480;BME280;3781;42.272;22.658;2023-12-20T00:26:45;94830.06;;;6.03;51.78
7480;BME280;3781;42.272;22.658;2023-12-20T00:29:12;94809.44;;;6.16;51.24
7480;BME280;3781;42.272;22.658;2023-12-20T00:31:39;94838.13;;;6.49;51.29
7480;BME280;3781;42.272;22.658;2023-12-20T00:34:06;94829.03;;;6.31;51.45
7480;BME280;3781;42.272;22.658;2023-12-20T00:36:34;94789.84;;;6.26;51.65
7480;BME280;3781;42.272;22.658;2023-12-20T00:39:01;94781.38;;;5.98;51.65
7480;BME280;3781;42.272;22.658;2023-12-20T00:41:27;94824.72;;;6.19;51.81
7480;BME280;3781;42.272;22.658;2023-12-20T00:43:54;94784.88;;;6.23;51.57
7480;BME280;3781;42.272;22.658;2023-12-20T00:46:21;94817.91;;;6.18;52.25
7480;BME280;3781;42.272;22.658;2023-12-20T00:48:48;94771.91;;;5.86;52.01
7480;BME280;3781;42.272;22.658;2023-12-20T00:51:15;94777.50;;;5.27;53.62
7480;BME280;3781;42.272;22.658;2023-12-20T00:53:43;94806.34;;;6.36;52.61
7480;BME280;3781;42.272;22.658;2023-12-20T00:56:10;94796.13;;;6.47;51.72
7480;BME280;3781;42.272;22.658;2023-12-20T00:58:36;94775.59;;;6.45;51.07
7480;BME280;3781;42.272;22.658;2023-12-20T01:01:03;94818.19;;;6.76;51.34
7480;BME280;3781;42.272;22.658;2023-12-20T01:03:29;94816.78;;;6.83;50.69
7480;BME280;3781;42.272;22.658;2023-12-20T01:05:56;94807.44;;;6.57;51.53
7480;BME280;3781;42.272;22.658;2023-12-20T01:08:22;94788.75;;;6.66;50.86
7480;BME280;3781;42.272;22.658;2023-12-20T01:10:52;94803.03;;;6.95;51.21
7480;BME280;3781;42.272;22.658;2023-12-20T01:13:18;94801.97;;;6.74;50.58
7480;BME280;3781;42.272;22.658;2023-12-20T01:15:45;94759.63;;;6.28;51.08
7480;BME280;3781;42.272;22.658;2023-12-20T01:18:13;94791.66;;;6.61;51.02
7480;BME280;3781;42.272;22.658;2023-12-20T01:20:40;94788.47;;;6.58;50.94
7480;BME280;3781;42.272;22.658;2023-12-20T01:23:06;94758.38;;;6.46;50.91
7480;BME280;3781;42.272;22.658;2023-12-20T01:25:33;94756.50;;;6.48;51.00
7480;BME280;3781;42.272;22.658;2023-12-20T01:28:01;94771.13;;;6.96;50.85
7480;BME280;3781;42.272;22.658;2023-12-20T01:30:28;94760.97;;;6.21;51.92
7480;BME280;3781;42.272;22.658;2023-12-20T01:32:55;94773.53;;;6.38;51.91
7480;BME280;3781;42.272;22.658;2023-12-20T01:35:22;94737.13;;;5.79;52.03
7480;BME280;3781;42.272;22.658;2023-12-20T01:37:48;94756.66;;;6.08;51.70
7480;BME280;3781;42.272;22.658;2023-12-20T01:40:15;94751.09;;;6.02;51.56
7480;BME280;3781;42.272;22.658;2023-12-20T01:42:42;94752.28;;;5.71;52.72
7480;BME280;3781;42.272;22.658;2023-12-20T01:45:10;94748.75;;;5.72;53.13
7480;BME280;3781;42.272;22.658;2023-12-20T01:47:37;94742.00;;;5.96;52.41
7480;BME280;3781;42.272;22.658;2023-12-20T01:50:06;94744.22;;;6.51;51.41
7480;BME280;3781;42.272;22.658;2023-12-20T01:52:34;94731.66;;;6.09;52.52
7480;BME280;3781;42.272;22.658;2023-12-20T01:55:01;94736.94;;;6.33;51.67
7480;BME280;3781;42.272;22.658;2023-12-20T01:57:30;94730.13;;;6.68;51.29
7480;BME280;3781;42.272;22.658;2023-12-20T01:59:57;94720.16;;;6.87;50.83
7480;BME280;3781;42.272;22.658;2023-12-20T02:02:26;94721.25;;;7.19;50.61
7480;BME280;3781;42.272;22.658;2023-12-20T02:04:54;94726.69;;;7.04;50.42
7480;BME280;3781;42.272;22.658;2023-12-20T02:07:22;94727.94;;;7.45;50.07
7480;BME280;3781;42.272;22.658;2023-12-20T02:09:49;94722.84;;;7.33;50.34
7480;BME280;3781;42.272;22.658;2023-12-20T02:12:16;94714.59;;;7.04;50.58
7480;BME280;3781;42.272;22.658;2023-12-20T02:14:43;94714.31;;;6.96;50.30
7480;BME280;3781;42.272;22.658;2023-12-20T02:17:10;94713.00;;;7.14;50.02
7480;BME280;3781;42.272;22.658;2023-12-20T02:19:38;94701.38;;;7.43;49.74
7480;BME280;3781;42.272;22.658;2023-12-20T02:22:08;94706.88;;;6.68;50.46
7480;BME280;3781;42.272;22.658;2023-12-20T02:24:33;94697.34;;;6.08;52.02
7480;BME280;3781;42.272;22.658;2023-12-20T02:27:00;94701.66;;;5.83;52.16
7480;BME280;3781;42.272;22.658;2023-12-20T02:29:27;94650.38;;;5.03;53.82
7480;BME280;3781;42.272;22.658;2023-12-20T02:31:54;94693.09;;;5.45;53.38
7480;BME280;3781;42.272;22.658;2023-12-20T02:34:20;94688.78;;;5.45;53.22
7480;BME280;3781;42.272;22.658;2023-12-20T02:36:47;94665.78;;;4.78;54.52
7480;BME280;3781;42.272;22.658;2023-12-20T02:39:16;94686.28;;;5.81;53.66
7480;BME280;3781;42.272;22.658;2023-12-20T02:41:42;94683.44;;;5.86;52.32
7480;BME280;3781;42.272;22.658;2023-12-20T02:44:09;94687.16;;;5.94;52.16
7480;BME280;3781;42.272;22.658;2023-12-20T02:46:36;94651.88;;;5.57;51.65
7480;BME280;3781;42.272;22.658;2023-12-20T02:49:02;94679.84;;;5.88;51.49
7480;BME280;3781;42.272;22.658;2023-12-20T02:51:29;94678.78;;;5.78;51.91
7480;BME280;3781;42.272;22.658;2023-12-20T02:53:56;94671.56;;;5.83;51.82
7480;BME280;3781;42.272;22.658;2023-12-20T02:56:24;94657.84;;;6.08;51.04
7480;BME280;3781;42.272;22.658;2023-12-20T02:58:51;94647.56;;;5.45;51.97
7480;BME280;3781;42.272;22.658;2023-12-20T03:01:17;94668.88;;;5.60;52.22
7480;BME280;3781;42.272;22.658;2023-12-20T03:03:45;94638.09;;;5.58;52.07
7480;BME280;3781;42.272;22.658;2023-12-20T03:06:16;94663.22;;;6.18;51.52
7480;BME280;3781;42.272;22.658;2023-12-20T03:08:43;94671.88;;;5.66;52.40
7480;BME280;3781;42.272;22.658;2023-12-20T03:11:10;94637.16;;;5.34;52.82
7480;BME280;3781;42.272;22.658;2023-12-20T03:13:39;94662.72;;;5.62;53.19
7480;BME280;3781;42.272;22.658;2023-12-20T03:16:08;94653.31;;;5.61;52.71
7480;BME280;3781;42.272;22.658;2023-12-20T03:18:35;94625.59;;;5.40;52.80
7480;BME280;3781;42.272;22.658;2023-12-20T03:21:02;94648.59;;;5.55;52.19
7480;BME280;3781;42.272;22.658;2023-12-20T03:23:29;94642.00;;;5.51;52.41
7480;BME280;3781;42.272;22.658;2023-12-20T03:25:57;94640.13;;;5.41;52.11
7480;BME280;3781;42.272;22.658;2023-12-20T03:28:24;94656.00;;;5.47;51.98
7480;BME280;3781;42.272;22.658;2023-12-20T03:30:53;94649.72;;;5.51;53.20
7480;BME280;3781;42.272;22.658;2023-12-20T03:33:19;94644.63;;;5.12;52.67
7480;BME280;3781;42.272;22.658;2023-12-20T03:35:46;94642.00;;;4.47;54.66
7480;BME280;3781;42.272;22.658;2023-12-20T03:38:13;94646.91;;;4.65;54.43
7480;BME280;3781;42.272;22.658;2023-12-20T03:40:40;94637.00;;;4.58;54.21
7480;BME280;3781;42.272;22.658;2023-12-20T03:43:06;94641.00;;;4.50;54.73
7480;BME280;3781;42.272;22.658;2023-12-20T03:45:33;94620.78;;;4.71;54.09
7480;BME280;3781;42.272;22.658;2023-12-20T03:48:01;94638.88;;;5.21;53.68
7480;BME280;3781;42.272;22.658;2023-12-20T03:50:28;94629.72;;;5.17;53.15
7480;BME280;3781;42.272;22.658;2023-12-20T03:52:55;94602.34;;;4.37;53.69
7480;BME280;3781;42.272;22.658;2023-12-20T03:55:22;94615.50;;;4.33;54.27
7480;BME280;3781;42.272;22.658;2023-12-20T03:57:49;94611.44;;;4.70;53.62
7480;BME280;3781;42.272;22.658;2023-12-20T04:00:16;94626.91;;;5.07;53.57
7480;BME280;3781;42.272;22.658;2023-12-20T04:02:43;94641.94;;;5.01;53.18
7480;BME280;3781;42.272;22.658;2023-12-20T04:05:11;94603.88;;;5.06;53.37
7480;BME280;3781;42.272;22.658;2023-12-20T04:07:38;94634.59;;;4.82;53.02
7480;BME280;3781;42.272;22.658;2023-12-20T04:10:05;94633.22;;;4.64;54.31
7480;BME280;3781;42.272;22.658;2023-12-20T04:12:32;94609.09;;;4.52;53.58
7480;BME280;3781;42.272;22.658;2023-12-20T04:14:59;94609.41;;;4.48;54.29
7480;BME280;3781;42.272;22.658;2023-12-20T04:17:26;94632.88;;;4.83;53.42
7480;BME280;3781;42.272;22.658;2023-12-20T04:19:53;94618.78;;;5.01;52.90
7480;BME280;3781;42.272;22.658;2023-12-20T04:22:21;94619.94;;;5.47;52.65
7480;BME280;3781;42.272;22.658;2023-12-20T04:24:48;94618.19;;;5.60;51.85
7480;BME280;3781;42.272;22.658;2023-12-20T04:27:14;94614.13;;;5.81;51.49
7480;BME280;3781;42.272;22.658;2023-12-20T04:29:41;94616.19;;;5.76;51.21
7480;BME280;3781;42.272;22.658;2023-12-20T04:32:08;94590.22;;;5.79;51.22
7480;BME280;3781;42.272;22.658;2023-12-20T04:34:36;94611.41;;;5.84;51.73
7480;BME280;3781;42.272;22.658;2023-12-20T04:37:03;94588.63;;;5.03;52.90
7480;BME280;3781;42.272;22.658;2023-12-20T04:39:31;94585.31;;;4.88;53.66
7480;BME280;3781;42.272;22.658;2023-12-20T04:41:58;94562.28;;;4.08;54.66
7480;BME280;3781;42.272;22.658;2023-12-20T04:44:25;94604.66;;;4.81;53.75
7480;BME280;3781;42.272;22.658;2023-12-20T04:46:52;94562.47;;;4.84;52.95
7480;BME280;3781;42.272;22.658;2023-12-20T04:49:18;94602.66;;;5.24;52.89
7480;BME280;3781;42.272;22.658;2023-12-20T04:51:45;94599.50;;;4.94;52.74
7480;BME280;3781;42.272;22.658;2023-12-20T04:54:12;94595.03;;;5.48;52.07
7480;BME280;3781;42.272;22.658;2023-12-20T04:56:41;94597.78;;;5.57;51.89
7480;BME280;3781;42.272;22.658;2023-12-20T04:59:08;94590.69;;;5.23;52.16
7480;BME280;3781;42.272;22.658;2023-12-20T05:01:34;94575.44;;;5.20;52.19
7480;BME280;3781;42.272;22.658;2023-12-20T05:04:01;94586.97;;;5.27;52.09
7480;BME280;3781;42.272;22.658;2023-12-20T05:06:28;94590.47;;;5.51;52.42
7480;BME280;3781;42.272;22.658;2023-12-20T05:08:55;94588.44;;;5.56;52.13
7480;BME280;3781;42.272;22.658;2023-12-20T05:11:21;94584.69;;;5.85;51.82
7480;BME280;3781;42.272;22.658;2023-12-20T05:13:50;94585.72;;;5.95;51.32
7480;BME280;3781;42.272;22.658;2023-12-20T05:16:16;94554.84;;;5.45;51.36
7480;BME280;3781;42.272;22.658;2023-12-20T05:18:44;94555.44;;;5.61;51.86
7480;BME280;3781;42.272;22.658;2023-12-20T05:21:11;94523.13;;;5.45;51.83
7480;BME280;3781;42.272;22.658;2023-12-20T05:23:38;94566.13;;;5.80;50.78
7480;BME280;3781;42.272;22.658;2023-12-20T05:26:05;94555.81;;;5.68;51.27
7480;BME280;3781;42.272;22.658;2023-12-20T05:28:32;94556.84;;;5.90;50.78
7480;BME280;3781;42.272;22.658;2023-12-20T05:31:00;94542.72;;;6.20;50.45
7480;BME280;3781;42.272;22.658;2023-12-20T05:33:27;94507.56;;;5.82;50.30
7480;BME280;3781;42.272;22.658;2023-12-20T05:35:53;94557.19;;;6.09;50.72
7480;BME280;3781;42.272;22.658;2023-12-20T05:38:20;94550.28;;;5.61;51.34
7480;BME280;3781;42.272;22.658;2023-12-20T05:40:47;94554.75;;;5.34;51.29
7480;BME280;3781;42.272;22.658;2023-12-20T05:43:14;94554.84;;;4.82;52.57
7480;BME280;3781;42.272;22.658;2023-12-20T05:45:40;94553.00;;;5.09;52.31
7480;BME280;3781;42.272;22.658;2023-12-20T05:48:09;94554.47;;;5.26;52.53
7480;BME280;3781;42.272;22.658;2023-12-20T05:50:35;94554.97;;;5.18;51.74
7480;BME280;3781;42.272;22.658;2023-12-20T05:53:02;94544.97;;;5.14;51.70
7480;BME280;3781;42.272;22.658;2023-12-20T05:55:29;94512.84;;;5.32;51.33
7480;BME280;3781;42.272;22.658;2023-12-20T05:57:56;94549.88;;;5.67;50.94
7480;BME280;3781;42.272;22.658;2023-12-20T06:00:23;94548.22;;;5.66;51.21
7480;BME280;3781;42.272;22.658;2023-12-20T06:02:50;94527.59;;;5.66;50.67
7480;BME280;3781;42.272;22.658;2023-12-20T06:05:19;94547.25;;;5.92;51.09
7480;BME280;3781;42.272;22.658;2023-12-20T06:07:45;94527.59;;;5.66;50.72
7480;BME280;3781;42.272;22.658;2023-12-20T06:10:13;94543.28;;;5.63;51.13
7480;BME280;3781;42.272;22.658;2023-12-20T06:12:40;94551.06;;;5.74;50.66
7480;BME280;3781;42.272;22.658;2023-12-20T06:15:07;94534.81;;;5.61;51.08
7480;BME280;3781;42.272;22.658;2023-12-20T06:17:34;94522.84;;;5.24;51.38
7480;BME280;3781;42.272;22.658;2023-12-20T06:20:02;94517.19;;;5.19;51.39
7480;BME280;3781;42.272;22.658;2023-12-20T06:22:34;94531.84;;;5.67;51.27
7480;BME280;3781;42.272;22.658;2023-12-20T06:25:01;94531.59;;;5.34;51.20
7480;BME280;3781;42.272;22.658;2023-12-20T06:27:28;94533.94;;;5.50;51.31
7480;BME280;3781;42.272;22.658;2023-12-20T06:29:55;94536.56;;;5.73;51.01
7480;BME280;3781;42.272;22.658;2023-12-20T06:32:22;94540.41;;;5.55;51.13
7480;BME280;3781;42.272;22.658;2023-12-20T06:34:49;94533.31;;;5.46;51.36
7480;BME280;3781;42.272;22.658;2023-12-20T06:37:16;94536.06;;;5.56;51.29
7480;BME280;3781;42.272;22.658;2023-12-20T06:39:44;94545.28;;;5.83;51.52
7480;BME280;3781;42.272;22.658;2023-12-20T06:42:12;94535.88;;;5.46;51.47
7480;BME280;3781;42.272;22.658;2023-12-20T06:44:39;94542.00;;;4.95;52.93
7480;BME280;3781;42.272;22.658;2023-12-20T06:47:06;94524.38;;;5.14;52.57
7480;BME280;3781;42.272;22.658;2023-12-20T06:49:33;94518.41;;;5.26;52.44
7480;BME280;3781;42.272;22.658;2023-12-20T06:52:00;94538.56;;;4.56;53.90
7480;BME280;3781;42.272;22.658;2023-12-20T06:54:26;94498.84;;;4.73;53.38
7480;BME280;3781;42.272;22.658;2023-12-20T06:56:54;94535.69;;;5.49;52.66
7480;BME280;3781;42.272;22.658;2023-12-20T06:59:21;94529.84;;;5.34;52.85
7480;BME280;3781;42.272;22.658;2023-12-20T07:01:48;94507.25;;;5.38;52.43
7480;BME280;3781;42.272;22.658;2023-12-20T07:04:15;94524.28;;;5.77;51.98
7480;BME280;3781;42.272;22.658;2023-12-20T07:06:45;94528.16;;;5.95;52.12
7480;BME280;3781;42.272;22.658;2023-12-20T07:09:12;94524.94;;;6.04;52.14
7480;BME280;3781;42.272;22.658;2023-12-20T07:11:40;94519.91;;;6.26;51.45
7480;BME280;3781;42.272;22.658;2023-12-20T07:14:08;94515.16;;;6.44;51.98
7480;BME280;3781;42.272;22.658;2023-12-20T07:16:35;94521.34;;;6.06;52.30
7480;BME280;3781;42.272;22.658;2023-12-20T07:19:01;94524.66;;;5.47;52.97
7480;BME280;3781;42.272;22.658;2023-12-20T07:21:28;94515.16;;;5.96;53.13
7480;BME280;3781;42.272;22.658;2023-12-20T07:23:55;94508.41;;;6.54;52.33
7480;BME280;3781;42.272;22.658;2023-12-20T07:26:22;94509.91;;;7.02;51.13
7480;BME280;3781;42.272;22.658;2023-12-20T07:28:48;94507.94;;;7.39;51.01
7480;BME280;3781;42.272;22.658;2023-12-20T07:31:17;94494.91;;;7.63;50.33
7480;BME280;3781;42.272;22.658;2023-12-20T07:33:43;94482.47;;;7.23;50.17
7480;BME280;3781;42.272;22.658;2023-12-20T07:36:11;94491.16;;;7.00;50.14
7480;BME280;3781;42.272;22.658;2023-12-20T07:38:38;94484.38;;;6.64;51.44
7480;BME280;3781;42.272;22.658;2023-12-20T07:41:04;94480.75;;;6.67;51.63
7480;BME280;3781;42.272;22.658;2023-12-20T07:43:31;94491.03;;;6.56;51.30
7480;BME280;3781;42.272;22.658;2023-12-20T07:46:04;94488.06;;;6.84;51.26
7480;BME280;3781;42.272;22.658;2023-12-20T07:48:32;94487.03;;;7.31;50.82
7480;BME280;3781;42.272;22.658;2023-12-20T07:50:59;94466.91;;;6.68;51.19
7480;BME280;3781;42.272;22.658;2023-12-20T07:53:26;94479.81;;;6.79;51.33
7480;BME280;3781;42.272;22.658;2023-12-20T07:55:53;94485.53;;;7.39;50.43
7480;BME280;3781;42.272;22.658;2023-12-20T07:58:19;94451.56;;;7.55;49.69
7480;BME280;3781;42.272;22.658;2023-12-20T08:00:47;94423.56;;;7.71;49.67
7480;BME280;3781;42.272;22.658;2023-12-20T08:03:14;94474.63;;;7.90;49.39
7480;BME280;3781;42.272;22.658;2023-12-20T08:05:43;94473.31;;;8.38;47.81
7480;BME280;3781;42.272;22.658;2023-12-20T08:08:09;94481.22;;;8.37;48.23
7480;BME280;3781;42.272;22.658;2023-12-20T08:10:36;94465.69;;;8.57;48.39
7480;BME280;3781;42.272;22.658;2023-12-20T08:13:06;94474.84;;;8.61;47.00
7480;BME280;3781;42.272;22.658;2023-12-20T08:15:34;94470.75;;;8.79;46.77
7480;BME280;3781;42.272;22.658;2023-12-20T08:18:00;94461.91;;;8.82;46.90
7480;BME280;3781;42.272;22.658;2023-12-20T08:20:27;94453.56;;;8.99;46.88
7480;BME280;3781;42.272;22.658;2023-12-20T08:22:55;94456.38;;;9.47;46.95
7480;BME280;3781;42.272;22.658;2023-12-20T08:25:22;94453.16;;;9.64;45.57
7480;BME280;3781;42.272;22.658;2023-12-20T08:27:48;94448.06;;;10.02;45.71
7480;BME280;3781;42.272;22.658;2023-12-20T08:30:15;94442.81;;;9.83;45.37
7480;BME280;3781;42.272;22.658;2023-12-20T08:32:46;94434.19;;;10.41;45.53
7480;BME280;3781;42.272;22.658;2023-12-20T08:35:12;94427.03;;;10.63;44.92
7480;BME280;3781;42.272;22.658;2023-12-20T08:37:39;94425.66;;;10.01;45.50
7480;BME280;3781;42.272;22.658;2023-12-20T08:40:08;94417.22;;;10.18;46.30
7480;BME280;3781;42.272;22.658;2023-12-20T08:42:35;94424.59;;;10.32;46.13
7480;BME280;3781;42.272;22.658;2023-12-20T08:45:02;94417.78;;;10.31;45.55
7480;BME280;3781;42.272;22.658;2023-12-20T08:47:29;94401.31;;;9.83;45.92
7480;BME280;3781;42.272;22.658;2023-12-20T08:49:56;94405.75;;;10.21;45.53
7480;BME280;3781;42.272;22.658;2023-12-20T08:52:25;94413.38;;;10.60;45.19
7480;BME280;3781;42.272;22.658;2023-12-20T08:54:53;94388.50;;;10.68;45.32
7480;BME280;3781;42.272;22.658;2023-12-20T08:57:21;94399.63;;;10.97;44.58
7480;BME280;3781;42.272;22.658;2023-12-20T08:59:49;94387.56;;;10.49;44.57
7480;BME280;3781;42.272;22.658;2023-12-20T09:02:16;94393.47;;;10.32;44.96
7480;BME280;3781;42.272;22.658;2023-12-20T09:04:43;94399.47;;;10.42;44.92
7480;BME280;3781;42.272;22.658;2023-12-20T09:07:21;94396.06;;;10.98;44.70
7480;BME280;3781;42.272;22.658;2023-12-20T09:09:48;94388.50;;;10.58;44.64
7480;BME280;3781;42.272;22.658;2023-12-20T09:12:14;94385.00;;;10.21;44.79
7480;BME280;3781;42.272;22.658;2023-12-20T09:14:43;94374.03;;;10.55;45.17
7480;BME280;3781;42.272;22.658;2023-12-20T09:17:09;94370.38;;;10.39;45.33
7480;BME280;3781;42.272;22.658;2023-12-20T09:19:37;94370.59;;;10.65;44.86
7480;BME280;3781;42.272;22.658;2023-12-20T09:22:04;94361.44;;;10.60;44.49
7480;BME280;3781;42.272;22.658;2023-12-20T09:24:31;94353.03;;;10.39;44.62
7480;BME280;3781;42.272;22.658;2023-12-20T09:26:58;94354.69;;;10.21;45.25
7480;BME280;3781;42.272;22.658;2023-12-20T09:29:25;94348.50;;;10.22;45.15
7480;BME280;3781;42.272;22.658;2023-12-20T09:31:53;94333.19;;;9.81;45.88
7480;BME280;3781;42.272;22.658;2023-12-20T09:34:20;94341.81;;;9.81;45.58
7480;BME280;3781;42.272;22.658;2023-12-20T09:36:47;94337.75;;;10.17;45.58
7480;BME280;3781;42.272;22.658;2023-12-20T09:39:14;94314.38;;;9.79;45.23
7480;BME280;3781;42.272;22.658;2023-12-20T09:41:43;94302.97;;;10.56;45.54
7480;BME280;3781;42.272;22.658;2023-12-20T09:44:14;94300.72;;;10.71;45.12
7480;BME280;3781;42.272;22.658;2023-12-20T09:46:44;94313.16;;;10.21;45.80
7480;BME280;3781;42.272;22.658;2023-12-20T09:49:13;94309.00;;;10.38;46.28
7480;BME280;3781;42.272;22.658;2023-12-20T09:51:40;94310.75;;;10.93;45.47
7480;BME280;3781;42.272;22.658;2023-12-20T09:54:08;94281.31;;;11.47;45.12
7480;BME280;3781;42.272;22.658;2023-12-20T09:56:37;94296.56;;;12.13;44.73
7480;BME280;3781;42.272;22.658;2023-12-20T09:59:03;94284.66;;;12.10;43.39
7480;BME280;3781;42.272;22.658;2023-12-20T10:01:31;94272.28;;;12.30;43.31
7480;BME280;3781;42.272;22.658;2023-12-20T10:04:00;94259.44;;;12.62;42.69
7480;BME280;3781;42.272;22.658;2023-12-20T10:06:28;94269.25;;;13.02;42.69
7480;BME280;3781;42.272;22.658;2023-12-20T10:08:55;94266.16;;;12.64;42.90
7480;BME280;3781;42.272;22.658;2023-12-20T10:11:22;94262.59;;;12.65;42.69
7480;BME280;3781;42.272;22.658;2023-12-20T10:13:49;94250.31;;;12.58;42.69
7480;BME280;3781;42.272;22.658;2023-12-20T10:16:16;94251.16;;;12.33;42.77
7480;BME280;3781;42.272;22.658;2023-12-20T10:18:42;94248.38;;;12.08;42.76
7480;BME280;3781;42.272;22.658;2023-12-20T10:21:10;94242.34;;;12.08;42.92
7480;BME280;3781;42.272;22.658;2023-12-20T10:23:38;94240.34;;;12.20;43.46
7480;BME280;3781;42.272;22.658;2023-12-20T10:26:06;94235.63;;;11.62;44.17
7480;BME280;3781;42.272;22.658;2023-12-20T10:28:33;94226.78;;;11.55;44.18
7480;BME280;3781;42.272;22.658;2023-12-20T10:31:00;94231.59;;;11.15;45.16
7480;BME280;3781;42.272;22.658;2023-12-20T10:33:28;94229.53;;;11.36;44.97
7480;BME280;3781;42.272;22.658;2023-12-20T10:35:55;94220.00;;;11.27;44.17
7480;BME280;3781;42.272;22.658;2023-12-20T10:38:22;94220.25;;;11.69;44.06
7480;BME280;3781;42.272;22.658;2023-12-20T10:40:53;94204.59;;;12.30;44.01
7480;BME280;3781;42.272;22.658;2023-12-20T10:43:21;94201.88;;;11.70;43.77
7480;BME280;3781;42.272;22.658;2023-12-20T10:45:48;94193.19;;;11.44;44.98
7480;BME280;3781;42.272;22.658;2023-12-20T10:48:15;94191.50;;;11.70;44.44
7480;BME280;3781;42.272;22.658;2023-12-20T10:50:43;94196.06;;;11.94;44.11
7480;BME280;3781;42.272;22.658;2023-12-20T10:53:11;94191.81;;;12.19;44.47
7480;BME280;3781;42.272;22.658;2023-12-20T10:55:40;94177.59;;;12.31;43.70
7480;BME280;3781;42.272;22.658;2023-12-20T10:58:09;94175.53;;;12.92;43.76
7480;BME280;3781;42.272;22.658;2023-12-20T11:00:39;94163.50;;;12.91;43.26
7480;BME280;3781;42.272;22.658;2023-12-20T11:03:09;94132.22;;;12.83;43.31
7480;BME280;3781;42.272;22.658;2023-12-20T11:05:41;94147.63;;;13.26;43.41
7480;BME280;3781;42.272;22.658;2023-12-20T11:08:13;94147.81;;;13.41;43.42
7480;BME280;3781;42.272;22.658;2023-12-20T11:10:48;94138.31;;;13.08;43.11
7480;BME280;3781;42.272;22.658;2023-12-20T11:13:22;94116.44;;;13.01;43.09
7480;BME280;3781;42.272;22.658;2023-12-20T11:15:50;94125.66;;;12.79;43.40
7480;BME280;3781;42.272;22.658;2023-12-20T11:18:17;94123.94;;;12.46;43.41
7480;BME280;3781;42.272;22.658;2023-12-20T11:20:43;94118.63;;;12.22;44.13
7480;BME280;3781;42.272;22.658;2023-12-20T11:23:11;94120.53;;;11.86;45.39
7480;BME280;3781;42.272;22.658;2023-12-20T11:25:48;94105.78;;;11.94;44.87
7480;BME280;3781;42.272;22.658;2023-12-20T11:28:15;94113.56;;;11.86;45.59
7480;BME280;3781;42.272;22.658;2023-12-20T11:30:49;94104.41;;;12.42;44.38
7480;BME280;3781;42.272;22.658;2023-12-20T11:33:16;94094.19;;;12.15;44.92
7480;BME280;3781;42.272;22.658;2023-12-20T11:35:47;94098.81;;;12.29;44.15
7480;BME280;3781;42.272;22.658;2023-12-20T11:38:14;94095.38;;;12.70;44.33
7480;BME280;3781;42.272;22.658;2023-12-20T11:40:42;94070.41;;;12.59;43.75
7480;BME280;3781;42.272;22.658;2023-12-20T11:43:09;94070.50;;;12.34;43.12
7480;BME280;3781;42.272;22.658;2023-12-20T11:45:35;94088.81;;;12.58;43.90
7480;BME280;3781;42.272;22.658;2023-12-20T11:48:06;94076.31;;;12.85;43.98
7480;BME280;3781;42.272;22.658;2023-12-20T11:50:34;94074.75;;;12.35;44.32
7480;BME280;3781;42.272;22.658;2023-12-20T11:53:04;94072.22;;;12.67;44.41
7480;BME280;3781;42.272;22.658;2023-12-20T11:55:31;94059.72;;;12.21;44.62
7480;BME280;3781;42.272;22.658;2023-12-20T11:57:58;94064.94;;;12.21;44.46
7480;BME280;3781;42.272;22.658;2023-12-20T12:00:25;94059.41;;;12.24;44.49
7480;BME280;3781;42.272;22.658;2023-12-20T12:02:55;94057.91;;;12.79;44.20
7480;BME280;3781;42.272;22.658;2023-12-20T12:05:26;94048.66;;;12.84;44.12
7480;BME280;3781;42.272;22.658;2023-12-20T12:07:53;94044.88;;;12.79;44.14
7480;BME280;3781;42.272;22.658;2023-12-20T12:10:20;94037.06;;;12.71;44.58
7480;BME280;3781;42.272;22.658;2023-12-20T12:12:48;94031.88;;;12.87;44.07
7480;BME280;3781;42.272;22.658;2023-12-20T12:15:15;94033.16;;;12.59;44.17
7480;BME280;3781;42.272;22.658;2023-12-20T12:17:42;94037.72;;;12.57;44.41
7480;BME280;3781;42.272;22.658;2023-12-20T12:20:09;94033.09;;;12.43;44.41
7480;BME280;3781;42.272;22.658;2023-12-20T12:22:39;94010.00;;;12.56;44.50
7480;BME280;3781;42.272;22.658;2023-12-20T12:25:10;94011.66;;;12.81;44.18
7480;BME280;3781;42.272;22.658;2023-12-20T12:27:39;94014.25;;;12.81;44.61
7480;BME280;3781;42.272;22.658;2023-12-20T12:30:07;94019.16;;;12.76;44.26
7480;BME280;3781;42.272;22.658;2023-12-20T12:32:35;94012.50;;;12.07;44.99
7480;BME280;3781;42.272;22.658;2023-12-20T12:35:03;94006.06;;;12.28;45.34
7480;BME280;3781;42.272;22.658;2023-12-20T12:37:33;94000.25;;;12.58;45.04
7480;BME280;3781;42.272;22.658;2023-12-20T12:40:03;93984.44;;;12.51;45.03
7480;BME280;3781;42.272;22.658;2023-12-20T12:42:31;93994.50;;;12.22;45.61
7480;BME280;3781;42.272;22.658;2023-12-20T12:44:58;93994.63;;;12.13;45.49
7480;BME280;3781;42.272;22.658;2023-12-20T12:47:25;93964.81;;;11.65;46.13
7480;BME280;3781;42.272;22.658;2023-12-20T12:49:52;93990.31;;;11.87;46.55
7480;BME280;3781;42.272;22.658;2023-12-20T12:52:21;93962.38;;;12.05;46.48
7480;BME280;3781;42.272;22.658;2023-12-20T12:54:50;93991.38;;;12.10;46.24
7480;BME280;3781;42.272;22.658;2023-12-20T12:57:18;93980.31;;;12.17;46.43
7480;BME280;3781;42.272;22.658;2023-12-20T12:59:46;93988.41;;;12.05;47.12
7480;BME280;3781;42.272;22.658;2023-12-20T13:02:13;93973.09;;;11.94;46.61
7480;BME280;3781;42.272;22.658;2023-12-20T13:04:40;93961.69;;;11.87;46.38
7480;BME280;3781;42.272;22.658;2023-12-20T13:07:08;93984.25;;;12.29;46.39
7480;BME280;3781;42.272;22.658;2023-12-20T13:09:37;93985.94;;;12.62;46.63
7480;BME280;3781;42.272;22.658;2023-12-20T13:12:04;93987.41;;;12.48;46.31
7480;BME280;3781;42.272;22.658;2023-12-20T13:14:33;93987.88;;;12.60;46.19
7480;BME280;3781;42.272;22.658;2023-12-20T13:17:02;93985.22;;;12.36;46.13
7480;BME280;3781;42.272;22.658;2023-12-20T13:19:30;93964.50;;;12.10;46.26